Time;durP1;ratioP1;P1;durP2;ratioP2;P2;SDS_P1;SDS_P2;PMS_P1;PMS_P2;Temp;Humidity;BMP_temperature;BMP_pressure;BME280_temperature;BME280_humidity;BME280_pressure;Samples;Min_cycle;Max_cycle;Signal;HPM_P1;HPM_P2
2022/11/09 00:00:37;;;;;;;;;;;;;;;;;;5101271;28;1390;-80
2022/11/09 00:03:04;;;;;;;;;;;;;;;;;;5100922;28;1110;-80
2022/11/09 00:05:31;;;;;;;;;;;;;;;;;;5101941;28;908;-80
2022/11/09 00:07:57;;;;;;;;;;;;;;;;;;5099636;28;1407;-80
2022/11/09 00:10:23;;;;;;;;;;;;;;;;;;5097894;28;1465;-80
2022/11/09 00:12:49;;;;;;;;;;;;;;;;;;5100050;28;1906;-80
2022/11/09 00:15:15;;;;;;;;;;;;;;;;;;5100382;28;967;-80
2022/11/09 00:17:41;;;;;;;;;;;;;;;;;;5103357;28;1086;-78
2022/11/09 00:20:10;;;;;;;;;;;;;;;;;;5092773;28;1416;-80
2022/11/09 00:22:36;;;;;;;;;;;;;;;;;;5079935;28;1127;-80
2022/11/09 00:25:02;;;;;;;;;;;;;;;;;;5080799;28;1511;-80
2022/11/09 00:27:29;;;;;;;;;;;;;;;;;;5080461;28;1444;-80
2022/11/09 00:29:56;;;;;;;;;;;;;;;;;;5089018;28;1428;-80
2022/11/09 00:32:22;;;;;;;;;;;;;;;;;;5099313;28;1277;-80
2022/11/09 00:34:48;;;;;;;;;;;;;;;;;;5100834;28;1898;-80
2022/11/09 00:37:16;;;;;;;;;;;;;;;;;;5100875;28;1285;-80
2022/11/09 00:39:42;;;;;;;;;;;;;;;;;;5099958;28;1392;-81
2022/11/09 00:42:09;;;;;;;;;;;;;;;;;;5099118;28;1554;-80
2022/11/09 00:44:35;;;;;;;;;;;;;;;;;;5099869;28;1387;-80
2022/11/09 00:47:02;;;;;;;;;;;;;;;;;;5100366;28;868;-80
2022/11/09 00:49:28;;;;;;;;;;;;;;;;;;5100034;28;1329;-80
2022/11/09 00:51:55;;;;;;;;;;;;;;;;;;5097776;28;1318;-78
2022/11/09 00:54:23;;;;;;;;;;;;;;;;;;5091150;28;1895;-79
2022/11/09 00:56:49;;;;;;;;;;;;;;;;;;5080053;28;1192;-80
2022/11/09 00:59:16;;;;;;;;;;;;;;;;;;5079050;28;1512;-80
2022/11/09 01:01:42;;;;;;;;;;;;;;;;;;5079477;28;1317;-79
2022/11/09 01:04:08;;;;;;;;;;;;;;;;;;5087799;28;1357;-81
2022/11/09 01:06:35;;;;;;;;;;;;;;;;;;5099768;28;886;-79
2022/11/09 01:09:01;;;;;;;;;;;;;;;;;;5099524;28;1351;-80
2022/11/09 01:11:29;;;;;;;;;;;;;;;;;;5097930;28;1360;-80
2022/11/09 01:13:55;;;;;;;;;;;;;;;;;;5091168;28;1918;-80
2022/11/09 01:16:22;;;;;;;;;;;;;;;;;;5079466;28;787;-79
2022/11/09 01:18:48;;;;;;;;;;;;;;;;;;5079919;28;976;-81
2022/11/09 01:21:15;;;;;;;;;;;;;;;;;;5079502;28;1380;-78
2022/11/09 01:23:42;;;;;;;;;;;;;;;;;;5079337;28;1455;-80
2022/11/09 01:26:09;;;;;;;;;;;;;;;;;;5079901;28;805;-80
2022/11/09 01:28:37;;;;;;;;;;;;;;;;;;5078295;28;909;-79
2022/11/09 01:31:04;;;;;;;;;;;;;;;;;;5079838;28;1420;-81
2022/11/09 01:33:31;;;;;;;;;;;;;;;;;;5085034;28;1945;-80
2022/11/09 01:36:01;;;;;;;;;;;;;;;;;;5100286;28;1297;-80
2022/11/09 01:38:29;;;;;;;;;;;;;;;;;;5099653;28;1341;-81
2022/11/09 01:40:56;;;;;;;;;;;;;;;;;;5100929;28;1384;-80
2022/11/09 01:43:23;;;;;;;;;;;;;;;;;;5093419;28;1447;-80
2022/11/09 01:45:51;;;;;;;;;;;;;;;;;;5078895;28;1265;-80
2022/11/09 01:48:18;;;;;;;;;;;;;;;;;;5080210;28;1154;-81
2022/11/09 01:50:46;;;;;;;;;;;;;;;;;;5080391;28;1319;-81
2022/11/09 01:53:13;;;;;;;;;;;;;;;;;;5078815;28;1906;-80
2022/11/09 01:55:39;;;;;;;;;;;;;;;;;;5080609;28;956;-80
2022/11/09 01:58:07;;;;;;;;;;;;;;;;;;5084266;28;1345;-80
2022/11/09 02:00:34;;;;;;;;;;;;;;;;;;5083152;28;1359;-80
2022/11/09 02:03:02;;;;;;;;;;;;;;;;;;5089555;28;1396;-80
2022/11/09 02:05:29;;;;;;;;;;;;;;;;;;5107834;28;1162;-80
2022/11/09 02:07:55;;;;;;;;;;;;;;;;;;5105533;28;1070;-81
2022/11/09 02:10:22;;;;;;;;;;;;;;;;;;5102021;28;1457;-80
2022/11/09 02:12:50;;;;;;;;;;;;;;;;;;5095366;28;1360;-80
2022/11/09 02:15:16;;;;;;;;;;;;;;;;;;5083391;28;1899;-80
2022/11/09 02:17:42;;;;;;;;;;;;;;;;;;5083119;28;1079;-80
2022/11/09 02:20:11;;;;;;;;;;;;;;;;;;5081043;28;1393;-80
2022/11/09 02:22:37;;;;;;;;;;;;;;;;;;5081371;28;972;-81
2022/11/09 02:25:05;;;;;;;;;;;;;;;;;;5081456;28;1181;-81
2022/11/09 02:27:31;;;;;;;;;;;;;;;;;;5083899;28;1411;-80
2022/11/09 02:29:57;;;;;;;;;;;;;;;;;;5101719;28;1586;-80
2022/11/09 02:32:24;;;;;;;;;;;;;;;;;;5099945;28;1708;-81
2022/11/09 02:34:52;;;;;;;;;;;;;;;;;;5083361;28;1895;-80
2022/11/09 02:37:27;;;;;;;;;;;;;;;;;;5081531;28;1300;-80
2022/11/09 02:39:54;;;;;;;;;;;;;;;;;;5088230;28;1374;-78
2022/11/09 02:42:20;;;;;;;;;;;;;;;;;;5103237;28;1142;-80
2022/11/09 02:44:47;;;;;;;;;;;;;;;;;;5102744;28;1151;-79
2022/11/09 02:47:14;;;;;;;;;;;;;;;;;;5103107;28;1063;-79
2022/11/09 02:49:41;;;;;;;;;;;;;;;;;;5103367;28;1435;-80
2022/11/09 02:52:08;;;;;;;;;;;;;;;;;;5103189;28;1323;-79
2022/11/09 02:54:36;;;;;;;;;;;;;;;;;;5093169;28;1884;-80
2022/11/09 02:57:03;;;;;;;;;;;;;;;;;;5086958;28;1626;-79
2022/11/09 02:59:31;;;;;;;;;;;;;;;;;;5086783;28;1353;-79
2022/11/09 03:01:58;;;;;;;;;;;;;;;;;;5085297;28;1073;-79
2022/11/09 03:04:25;;;;;;;;;;;;;;;;;;5080276;28;1385;-80
2022/11/09 03:06:52;;;;;;;;;;;;;;;;;;5090166;28;1361;-81
2022/11/09 03:09:19;;;;;;;;;;;;;;;;;;5099103;28;1494;-80
2022/11/09 03:11:48;;;;;;;;;;;;;;;;;;5099603;28;833;-80
2022/11/09 03:14:15;;;;;;;;;;;;;;;;;;5099213;28;1960;-79
2022/11/09 03:16:48;;;;;;;;;;;;;;;;;;5100620;28;1198;-80
2022/11/09 03:19:15;;;;;;;;;;;;;;;;;;5097834;28;1497;-80
2022/11/09 03:21:42;;;;;;;;;;;;;;;;;;5098256;28;1362;-80
2022/11/09 03:24:08;;;;;;;;;;;;;;;;;;5098664;28;1185;-80
2022/11/09 03:26:37;;;;;;;;;;;;;;;;;;5098638;28;1431;-80
2022/11/09 03:29:04;;;;;;;;;;;;;;;;;;5083446;28;1349;-80
2022/11/09 03:31:31;;;;;;;;;;;;;;;;;;5077564;28;1429;-79
2022/11/09 03:34:02;;;;;;;;;;;;;;;;;;5084305;28;1973;-80
2022/11/09 03:36:28;;;;;;;;;;;;;;;;;;5084772;28;1100;-79
2022/11/09 03:38:54;;;;;;;;;;;;;;;;;;5093456;28;1448;-80
2022/11/09 03:41:21;;;;;;;;;;;;;;;;;;5098153;28;1351;-80
2022/11/09 03:43:47;;;;;;;;;;;;;;;;;;5098202;28;1186;-80
2022/11/09 03:46:15;;;;;;;;;;;;;;;;;;5099526;28;1122;-81
2022/11/09 03:48:41;;;;;;;;;;;;;;;;;;5082728;28;1498;-81
2022/11/09 03:51:07;;;;;;;;;;;;;;;;;;5079134;28;1430;-79
2022/11/09 03:53:33;;;;;;;;;;;;;;;;;;5076473;28;1182;-80
2022/11/09 03:56:00;;;;;;;;;;;;;;;;;;5079011;28;1969;-80
2022/11/09 03:58:26;;;;;;;;;;;;;;;;;;5092243;28;1399;-79
2022/11/09 04:00:52;;;;;;;;;;;;;;;;;;5099474;28;1314;-79
2022/11/09 04:03:19;;;;;;;;;;;;;;;;;;5098735;28;1142;-80
2022/11/09 04:05:46;;;;;;;;;;;;;;;;;;5100624;28;1196;-80
2022/11/09 04:08:12;;;;;;;;;;;;;;;;;;5090160;28;1407;-80
2022/11/09 04:10:38;;;;;;;;;;;;;;;;;;5081395;28;1288;-79
2022/11/09 04:13:04;;;;;;;;;;;;;;;;;;5081250;28;1122;-79
2022/11/09 04:15:30;;;;;;;;;;;;;;;;;;5083289;28;1875;-79
2022/11/09 04:17:57;;;;;;;;;;;;;;;;;;5079649;28;1138;-80
2022/11/09 04:20:25;;;;;;;;;;;;;;;;;;5078118;28;1329;-80
2022/11/09 04:22:54;;;;;;;;;;;;;;;;;;5086506;28;1353;-80
2022/11/09 04:25:21;;;;;;;;;;;;;;;;;;5094523;28;1541;-80
2022/11/09 04:27:47;;;;;;;;;;;;;;;;;;5064814;28;1572;-79
2022/11/09 04:30:13;;;;;;;;;;;;;;;;;;5068265;28;1468;-79
2022/11/09 04:32:39;;;;;;;;;;;;;;;;;;5077692;28;1141;-80
2022/11/09 04:35:06;;;;;;;;;;;;;;;;;;5079334;28;1961;-79
2022/11/09 04:37:34;;;;;;;;;;;;;;;;;;5077711;28;1362;-80
2022/11/09 04:40:00;;;;;;;;;;;;;;;;;;5078847;28;1475;-78
2022/11/09 04:42:26;;;;;;;;;;;;;;;;;;5075985;28;1154;-78
2022/11/09 04:44:52;;;;;;;;;;;;;;;;;;5074023;28;1401;-78
2022/11/09 04:47:18;;;;;;;;;;;;;;;;;;5073318;28;996;-78
2022/11/09 04:49:45;;;;;;;;;;;;;;;;;;5069003;28;1480;-78
2022/11/09 04:52:11;;;;;;;;;;;;;;;;;;5062558;28;1445;-78
2022/11/09 04:54:38;;;;;;;;;;;;;;;;;;5086233;28;1910;-78
2022/11/09 04:57:05;;;;;;;;;;;;;;;;;;5092686;28;1193;-78
2022/11/09 04:59:31;;;;;;;;;;;;;;;;;;5088692;28;1527;-79
2022/11/09 05:01:57;;;;;;;;;;;;;;;;;;5063866;28;1173;-78
2022/11/09 05:04:23;;;;;;;;;;;;;;;;;;5072898;28;821;-78
2022/11/09 05:06:49;;;;;;;;;;;;;;;;;;5061910;28;1468;-78
2022/11/09 05:09:15;;;;;;;;;;;;;;;;;;5066477;28;1404;-80
2022/11/09 05:11:43;;;;;;;;;;;;;;;;;;5070646;28;1552;-78
2022/11/09 05:14:09;;;;;;;;;;;;;;;;;;5072038;28;1217;-77
2022/11/09 05:16:35;;;;;;;;;;;;;;;;;;5070869;28;1906;-78
2022/11/09 05:19:02;;;;;;;;;;;;;;;;;;5071207;28;1063;-77
2022/11/09 05:21:28;;;;;;;;;;;;;;;;;;5085242;28;1410;-78
2022/11/09 05:23:59;;;;;;;;;;;;;;;;;;5092671;28;932;-78
2022/11/09 05:26:26;;;;;;;;;;;;;;;;;;5090377;28;1045;-77
2022/11/09 05:28:54;;;;;;;;;;;;;;;;;;5091375;28;824;-78
2022/11/09 05:31:20;;;;;;;;;;;;;;;;;;5073757;28;1598;-76
2022/11/09 05:33:48;;;;;;;;;;;;;;;;;;5070884;28;794;-78
2022/11/09 05:36:14;;;;;;;;;;;;;;;;;;5071038;28;1975;-78
2022/11/09 05:38:40;;;;;;;;;;;;;;;;;;5077498;28;1139;-77
2022/11/09 05:41:06;;;;;;;;;;;;;;;;;;5080925;28;1395;-77
2022/11/09 05:43:32;;;;;;;;;;;;;;;;;;5079342;28;1263;-78
2022/11/09 05:46:00;;;;;;;;;;;;;;;;;;5082675;28;1253;-78
2022/11/09 05:48:26;;;;;;;;;;;;;;;;;;5081805;28;1258;-78
2022/11/09 05:50:52;;;;;;;;;;;;;;;;;;5085851;28;1313;-78
2022/11/09 05:53:24;;;;;;;;;;;;;;;;;;5081190;22;1980;-81
2022/11/09 05:55:50;;;;;;;;;;;;;;;;;;5041366;28;1894;-78
2022/11/09 05:58:16;;;;;;;;;;;;;;;;;;5046342;28;2038;-79
2022/11/09 06:00:43;;;;;;;;;;;;;;;;;;5047566;28;1946;-80
2022/11/09 06:03:10;;;;;;;;;;;;;;;;;;5037886;28;1420;-79
2022/11/09 06:05:37;;;;;;;;;;;;;;;;;;5021911;28;1231;-78
2022/11/09 06:08:04;;;;;;;;;;;;;;;;;;5023093;28;1536;-79
2022/11/09 06:10:30;;;;;;;;;;;;;;;;;;5022888;28;1302;-79
2022/11/09 06:12:56;;;;;;;;;;;;;;;;;;5018833;28;1493;-80
2022/11/09 06:15:23;;;;;;;;;;;;;;;;;;5022878;28;1981;-79
2022/11/09 06:17:50;;;;;;;;;;;;;;;;;;5020952;28;1164;-79
2022/11/09 06:20:18;;;;;;;;;;;;;;;;;;5023882;28;1271;-80
2022/11/09 06:22:44;;;;;;;;;;;;;;;;;;5022777;28;1413;-79
2022/11/09 06:25:10;;;;;;;;;;;;;;;;;;5023094;28;1302;-80
2022/11/09 06:27:37;;;;;;;;;;;;;;;;;;5024704;28;1211;-81
2022/11/09 06:30:03;;;;;;;;;;;;;;;;;;5021559;28;1323;-80
2022/11/09 06:32:29;;;;;;;;;;;;;;;;;;5019456;28;1463;-79
2022/11/09 06:34:55;;;;;;;;;;;;;;;;;;5022251;28;1958;-78
2022/11/09 06:37:23;;;;;;;;;;;;;;;;;;5035538;28;1324;-78
2022/11/09 06:39:50;;;;;;;;;;;;;;;;;;5035056;28;1310;-78
2022/11/09 06:42:16;;;;;;;;;;;;;;;;;;5030567;28;1231;-80
2022/11/09 06:44:43;;;;;;;;;;;;;;;;;;5023693;28;1323;-78
2022/11/09 06:47:09;;;;;;;;;;;;;;;;;;5026907;28;1235;-79
2022/11/09 06:49:35;;;;;;;;;;;;;;;;;;5026328;28;1267;-81
2022/11/09 06:52:01;;;;;;;;;;;;;;;;;;5030997;28;1263;-78
2022/11/09 06:54:29;;;;;;;;;;;;;;;;;;5026977;28;1509;-79
2022/11/09 06:56:55;;;;;;;;;;;;;;;;;;5021319;28;1962;-80
2022/11/09 06:59:21;;;;;;;;;;;;;;;;;;5018353;28;1422;-81
2022/11/09 07:01:51;;;;;;;;;;;;;;;;;;5016197;28;1278;-81
2022/11/09 07:04:17;;;;;;;;;;;;;;;;;;5018617;28;1345;-80
2022/11/09 07:06:44;;;;;;;;;;;;;;;;;;5018452;28;1135;-80
2022/11/09 07:09:10;;;;;;;;;;;;;;;;;;5017448;28;1343;-80
2022/11/09 07:11:37;;;;;;;;;;;;;;;;;;5017255;28;1123;-80
2022/11/09 07:14:03;;;;;;;;;;;;;;;;;;5018178;28;1327;-80
2022/11/09 07:16:30;;;;;;;;;;;;;;;;;;5019389;28;1914;-81
2022/11/09 07:18:56;;;;;;;;;;;;;;;;;;5019460;28;1438;-81
2022/11/09 07:21:22;;;;;;;;;;;;;;;;;;5018672;28;1131;-82
2022/11/09 07:23:48;;;;;;;;;;;;;;;;;;5018617;28;1342;-80
2022/11/09 07:26:15;;;;;;;;;;;;;;;;;;5025394;28;1566;-83
2022/11/09 07:28:43;;;;;;;;;;;;;;;;;;5027033;28;1239;-82
2022/11/09 07:31:09;;;;;;;;;;;;;;;;;;5016455;28;1200;-80
2022/11/09 07:33:35;;;;;;;;;;;;;;;;;;5024926;28;1466;-83
2022/11/09 07:36:02;;;;;;;;;;;;;;;;;;5020132;28;1989;-82
2022/11/09 07:38:29;;;;;;;;;;;;;;;;;;5025820;28;1673;-83
2022/11/09 07:40:57;;;;;;;;;;;;;;;;;;5020687;28;1180;-82
2022/11/09 07:43:24;;;;;;;;;;;;;;;;;;5037528;28;1515;-83
2022/11/09 07:45:52;;;;;;;;;;;;;;;;;;5025012;28;1677;-80
2022/11/09 07:48:19;;;;;;;;;;;;;;;;;;5017629;28;1459;-80
2022/11/09 07:50:45;;;;;;;;;;;;;;;;;;5014195;28;1060;-80
2022/11/09 07:53:12;;;;;;;;;;;;;;;;;;5010374;28;1361;-81
2022/11/09 07:55:38;;;;;;;;;;;;;;;;;;5013221;28;1977;-81
2022/11/09 07:58:05;;;;;;;;;;;;;;;;;;5012741;28;771;-80
2022/11/09 08:00:32;;;;;;;;;;;;;;;;;;5013476;28;996;-82
2022/11/09 08:03:00;;;;;;;;;;;;;;;;;;5012702;28;1426;-81
2022/11/09 08:05:26;;;;;;;;;;;;;;;;;;5015687;28;890;-81
2022/11/09 08:07:55;;;;;;;;;;;;;;;;;;5021451;28;1119;-82
2022/11/09 08:10:22;;;;;;;;;;;;;;;;;;5020814;28;909;-82
2022/11/09 08:12:52;;;;;;;;;;;;;;;;;;5025431;28;1350;-82
2022/11/09 08:15:18;;;;;;;;;;;;;;;;;;5025391;28;1910;-84
2022/11/09 08:17:44;;;;;;;;;;;;;;;;;;5029121;28;1296;-82
2022/11/09 08:20:12;;;;;;;;;;;;;;;;;;5026744;28;1292;-84
2022/11/09 08:22:40;;;;;;;;;;;;;;;;;;5025427;28;1315;-83
2022/11/09 08:25:07;;;;;;;;;;;;;;;;;;5017985;28;1040;-83
2022/11/09 08:27:38;;;;;;;;;;;;;;;;;;5010696;28;1261;-83
2022/11/09 08:30:05;;;;;;;;;;;;;;;;;;5017071;28;1484;-83
2022/11/09 08:32:31;;;;;;;;;;;;;;;;;;5017610;28;1342;-82
2022/11/09 08:34:58;;;;;;;;;;;;;;;;;;5018383;28;759;-82
2022/11/09 08:37:25;;;;;;;;;;;;;;;;;;5020132;28;1981;-80
2022/11/09 08:39:51;;;;;;;;;;;;;;;;;;5021000;28;1108;-81
2022/11/09 08:42:18;;;;;;;;;;;;;;;;;;5019519;28;1071;-83
2022/11/09 08:44:44;;;;;;;;;;;;;;;;;;5019504;28;1332;-82
2022/11/09 08:47:10;;;;;;;;;;;;;;;;;;5025880;28;1151;-82
2022/11/09 08:49:36;;;;;;;;;;;;;;;;;;5018438;28;1076;-81
2022/11/09 08:52:02;;;;;;;;;;;;;;;;;;5016975;28;767;-82
2022/11/09 08:54:30;;;;;;;;;;;;;;;;;;5017675;28;1322;-82
2022/11/09 08:56:56;;;;;;;;;;;;;;;;;;5018038;28;1895;-82
2022/11/09 08:59:23;;;;;;;;;;;;;;;;;;5016610;28;804;-82
2022/11/09 09:01:49;;;;;;;;;;;;;;;;;;5016545;28;976;-82
2022/11/09 09:04:15;;;;;;;;;;;;;;;;;;5017444;28;1478;-82
2022/11/09 09:06:42;;;;;;;;;;;;;;;;;;5015083;28;1348;-82
2022/11/09 09:09:08;;;;;;;;;;;;;;;;;;5017158;28;1349;-83
2022/11/09 09:11:35;;;;;;;;;;;;;;;;;;5016889;28;1246;-82
2022/11/09 09:14:02;;;;;;;;;;;;;;;;;;5018557;28;1324;-82
2022/11/09 09:16:28;;;;;;;;;;;;;;;;;;5019630;28;1906;-81
2022/11/09 09:18:54;;;;;;;;;;;;;;;;;;5029341;28;1312;-81
2022/11/09 09:21:20;;;;;;;;;;;;;;;;;;5032595;28;1151;-80
2022/11/09 09:23:47;;;;;;;;;;;;;;;;;;5028041;28;1424;-81
2022/11/09 09:26:13;;;;;;;;;;;;;;;;;;5017274;28;1406;-81
2022/11/09 09:28:40;;;;;;;;;;;;;;;;;;5017498;28;1060;-82
2022/11/09 09:31:07;;;;;;;;;;;;;;;;;;5014451;28;1706;-79
2022/11/09 09:33:33;;;;;;;;;;;;;;;;;;5012269;28;1447;-81
2022/11/09 09:36:00;;;;;;;;;;;;;;;;;;5012338;28;1918;-79
2022/11/09 09:38:26;;;;;;;;;;;;;;;;;;5013154;28;1128;-78
2022/11/09 09:40:54;;;;;;;;;;;;;;;;;;5018163;28;1537;-80
2022/11/09 09:43:27;;;;;;;;;;;;;;;;;;5013813;28;1361;-80
2022/11/09 09:45:55;;;;;;;;;;;;;;;;;;5014227;28;1056;-80
2022/11/09 09:48:24;;;;;;;;;;;;;;;;;;5015297;28;889;-80
2022/11/09 09:50:50;;;;;;;;;;;;;;;;;;5023201;28;1311;-80
2022/11/09 09:53:17;;;;;;;;;;;;;;;;;;5033483;28;1307;-80
2022/11/09 09:55:44;;;;;;;;;;;;;;;;;;5034556;28;1895;-80
2022/11/09 09:58:11;;;;;;;;;;;;;;;;;;5026489;28;1116;-81
2022/11/09 10:00:38;;;;;;;;;;;;;;;;;;5014489;28;1477;-81
2022/11/09 10:03:06;;;;;;;;;;;;;;;;;;5017356;28;1309;-80
2022/11/09 10:05:36;;;;;;;;;;;;;;;;;;5017683;28;965;-81
2022/11/09 10:08:04;;;;;;;;;;;;;;;;;;5016582;28;1068;-81
2022/11/09 10:10:37;;;;;;;;;;;;;;;;;;5015163;28;1347;-81
2022/11/09 10:13:12;;;;;;;;;;;;;;;;;;5016151;28;1350;-81
2022/11/09 10:15:41;;;;;;;;;;;;;;;;;;5017396;28;972;-80
2022/11/09 10:18:21;;;;;;;;;;;;;;;;;;5022027;28;2025;-81
2022/11/09 10:20:50;;;;;;;;;;;;;;;;;;5023796;28;1064;-80
2022/11/09 10:23:25;;;;;;;;;;;;;;;;;;5016605;28;1330;-80
2022/11/09 10:25:53;;;;;;;;;;;;;;;;;;5018663;28;1090;-80
2022/11/09 10:28:20;;;;;;;;;;;;;;;;;;5018641;28;894;-79
2022/11/09 10:30:46;;;;;;;;;;;;;;;;;;5018349;28;881;-81
2022/11/09 10:33:15;;;;;;;;;;;;;;;;;;5017903;28;1414;-80
2022/11/09 10:35:44;;;;;;;;;;;;;;;;;;5016944;28;1552;-81
2022/11/09 10:38:13;;;;;;;;;;;;;;;;;;5016797;28;1976;-80
2022/11/09 10:40:41;;;;;;;;;;;;;;;;;;5019203;28;771;-79
2022/11/09 10:43:26;;;;;;;;;;;;;;;;;;5019670;28;1352;-81
2022/11/09 10:46:11;;;;;;;;;;;;;;;;;;5019356;28;728;-82
2022/11/09 10:48:57;;;;;;;;;;;;;;;;;;5020369;28;724;-82
2022/11/09 10:51:42;;;;;;;;;;;;;;;;;;5021640;28;1409;-80
2022/11/09 10:54:30;;;;;;;;;;;;;;;;;;5037073;28;1342;-81
2022/11/09 10:57:15;;;;;;;;;;;;;;;;;;5034706;28;1879;-81
2022/11/09 11:00:01;;;;;;;;;;;;;;;;;;5019767;28;653;-81
2022/11/09 11:02:46;;;;;;;;;;;;;;;;;;5017638;28;1402;-80
2022/11/09 11:05:33;;;;;;;;;;;;;;;;;;5019394;28;604;-80
2022/11/09 11:08:23;;;;;;;;;;;;;;;;;;5018101;28;676;-81
2022/11/09 11:11:19;;;;;;;;;;;;;;;;;;5034524;28;713;-79
2022/11/09 11:14:07;;;;;;;;;;;;;;;;;;5029122;28;1402;-79
2022/11/09 11:16:52;;;;;;;;;;;;;;;;;;5035778;28;1975;-79
2022/11/09 11:19:37;;;;;;;;;;;;;;;;;;5019285;28;620;-81
2022/11/09 11:22:26;;;;;;;;;;;;;;;;;;5018357;28;617;-81
2022/11/09 11:25:17;;;;;;;;;;;;;;;;;;5018634;28;1413;-80
2022/11/09 11:28:02;;;;;;;;;;;;;;;;;;5019239;28;1425;-80
2022/11/09 11:30:47;;;;;;;;;;;;;;;;;;5019321;28;677;-80
2022/11/09 11:33:33;;;;;;;;;;;;;;;;;;5017979;28;1433;-80
2022/11/09 11:36:19;;;;;;;;;;;;;;;;;;5017443;28;1883;-80
2022/11/09 11:39:22;;;;;;;;;;;;;;;;;;5018224;28;613;-80
2022/11/09 11:42:20;;;;;;;;;;;;;;;;;;5018782;28;1051;-81
2022/11/09 11:45:14;;;;;;;;;;;;;;;;;;5018172;28;751;-80
2022/11/09 11:48:05;;;;;;;;;;;;;;;;;;5018762;28;1382;-80
2022/11/09 11:50:50;;;;;;;;;;;;;;;;;;5019958;28;600;-79
2022/11/09 11:53:40;;;;;;;;;;;;;;;;;;5030539;28;1362;-79
2022/11/09 11:56:26;;;;;;;;;;;;;;;;;;5032812;28;1962;-81
2022/11/09 11:59:17;;;;;;;;;;;;;;;;;;5067757;22;2063;-73
2022/11/09 12:02:21;;;;;;;;;;;;;;;;;;5071622;28;1071;-71
2022/11/09 12:05:23;;;;;;;;;;;;;;;;;;5073413;28;640;-74
2022/11/09 12:08:09;;;;;;;;;;;;;;;;;;5091126;28;1428;-74
2022/11/09 12:10:55;;;;;;;;;;;;;;;;;;5092563;28;607;-73
2022/11/09 12:13:46;;;;;;;;;;;;;;;;;;5092198;28;657;-73
2022/11/09 12:16:35;;;;;;;;;;;;;;;;;;5084825;28;1967;-73
2022/11/09 12:19:29;;;;;;;;;;;;;;;;;;5074305;28;1326;-74
2022/11/09 12:22:16;;;;;;;;;;;;;;;;;;5091398;28;683;-73
2022/11/09 12:25:02;;;;;;;;;;;;;;;;;;5090460;28;1471;-73
2022/11/09 12:27:55;;;;;;;;;;;;;;;;;;5092340;28;613;-75
2022/11/09 12:30:45;;;;;;;;;;;;;;;;;;5092132;28;615;-73
2022/11/09 12:33:33;;;;;;;;;;;;;;;;;;5089724;28;1142;-73
2022/11/09 12:36:20;;;;;;;;;;;;;;;;;;5081525;28;1132;-73
2022/11/09 12:39:06;;;;;;;;;;;;;;;;;;5087102;28;1423;-73
2022/11/09 12:41:51;;;;;;;;;;;;;;;;;;5056914;28;1033;-74
2022/11/09 12:44:37;;;;;;;;;;;;;;;;;;5073208;28;1453;-73
2022/11/09 12:47:24;;;;;;;;;;;;;;;;;;5092029;28;635;-74
2022/11/09 12:50:12;;;;;;;;;;;;;;;;;;5092177;28;1453;-74
2022/11/09 12:52:57;;;;;;;;;;;;;;;;;;5085675;28;1104;-73
2022/11/09 12:55:43;;;;;;;;;;;;;;;;;;5071493;28;1393;-73
2022/11/09 12:58:29;;;;;;;;;;;;;;;;;;5070826;28;1914;-75
2022/11/09 13:01:34;;;;;;;;;;;;;;;;;;5068832;28;1046;-73
2022/11/09 13:04:21;;;;;;;;;;;;;;;;;;5071073;28;717;-73
2022/11/09 13:07:17;;;;;;;;;;;;;;;;;;5073767;28;633;-74
2022/11/09 13:10:02;;;;;;;;;;;;;;;;;;5083939;28;1375;-74
2022/11/09 13:12:47;;;;;;;;;;;;;;;;;;5093712;28;636;-74
2022/11/09 13:15:33;;;;;;;;;;;;;;;;;;5091657;28;711;-73
2022/11/09 13:18:24;;;;;;;;;;;;;;;;;;5082050;28;1910;-75
2022/11/09 13:21:32;;;;;;;;;;;;;;;;;;5070769;28;1381;-74
2022/11/09 13:24:36;;;;;;;;;;;;;;;;;;5090914;28;662;-71
2022/11/09 13:27:33;;;;;;;;;;;;;;;;;;5090999;28;712;-74
2022/11/09 13:30:48;;;;;;;;;;;;;;;;;;5090827;28;689;-75
2022/11/09 13:33:33;;;;;;;;;;;;;;;;;;5090493;28;648;-75
2022/11/09 13:36:19;;;;;;;;;;;;;;;;;;5091106;28;632;-74
2022/11/09 13:39:21;;;;;;;;;;;;;;;;;;5090773;28;1959;-75
2022/11/09 13:42:19;;;;;;;;;;;;;;;;;;5079401;28;1266;-74
2022/11/09 13:45:17;;;;;;;;;;;;;;;;;;5071119;28;631;-76
2022/11/09 13:48:02;;;;;;;;;;;;;;;;;;5070465;28;1392;-74
2022/11/09 13:50:50;;;;;;;;;;;;;;;;;;5066433;28;1054;-75
2022/11/09 13:53:49;;;;;;;;;;;;;;;;;;5054144;28;651;-75
2022/11/09 13:56:35;;;;;;;;;;;;;;;;;;5066268;28;1148;-74
2022/11/09 13:59:22;;;;;;;;;;;;;;;;;;5072070;28;1326;-74
2022/11/09 14:02:12;;;;;;;;;;;;;;;;;;5074293;28;631;-74
2022/11/09 14:04:56;;;;;;;;;;;;;;;;;;5074886;28;626;-73
2022/11/09 14:07:41;;;;;;;;;;;;;;;;;;5074670;28;1385;-72
2022/11/09 14:10:32;;;;;;;;;;;;;;;;;;5073787;28;783;-74
2022/11/09 14:13:25;;;;;;;;;;;;;;;;;;5073308;28;639;-74
2022/11/09 14:16:13;;;;;;;;;;;;;;;;;;5074176;28;684;-73
2022/11/09 14:19:01;;;;;;;;;;;;;;;;;;5073971;28;1975;-75
2022/11/09 14:21:47;;;;;;;;;;;;;;;;;;5073242;28;652;-74
2022/11/09 14:24:32;;;;;;;;;;;;;;;;;;5074201;28;609;-74
2022/11/09 14:27:18;;;;;;;;;;;;;;;;;;5078147;28;1439;-74
2022/11/09 14:30:13;;;;;;;;;;;;;;;;;;5094159;28;1373;-75
2022/11/09 14:32:59;;;;;;;;;;;;;;;;;;5093605;28;684;-73
2022/11/09 14:35:44;;;;;;;;;;;;;;;;;;5078415;28;1168;-74
2022/11/09 14:38:30;;;;;;;;;;;;;;;;;;5085706;28;1918;-73
2022/11/09 14:41:17;;;;;;;;;;;;;;;;;;5053179;28;686;-74
2022/11/09 14:44:02;;;;;;;;;;;;;;;;;;5054019;28;699;-74
2022/11/09 14:46:47;;;;;;;;;;;;;;;;;;5057796;28;1460;-75
2022/11/09 14:49:33;;;;;;;;;;;;;;;;;;5072925;28;1389;-74
2022/11/09 14:52:18;;;;;;;;;;;;;;;;;;5072610;28;637;-74
2022/11/09 14:55:03;;;;;;;;;;;;;;;;;;5073838;28;698;-73
2022/11/09 14:57:48;;;;;;;;;;;;;;;;;;5078883;28;1913;-74
2022/11/09 15:00:34;;;;;;;;;;;;;;;;;;5073152;28;1190;-74
2022/11/09 15:03:23;;;;;;;;;;;;;;;;;;5072657;28;1160;-74
2022/11/09 15:06:09;;;;;;;;;;;;;;;;;;5073720;28;1057;-75
2022/11/09 15:08:56;;;;;;;;;;;;;;;;;;5073542;28;1341;-74
2022/11/09 15:11:41;;;;;;;;;;;;;;;;;;5073028;28;604;-75
2022/11/09 15:14:26;;;;;;;;;;;;;;;;;;5073677;28;648;-74
2022/11/09 15:17:14;;;;;;;;;;;;;;;;;;5077843;28;1439;-74
2022/11/09 15:19:59;;;;;;;;;;;;;;;;;;5091870;28;1375;-74
2022/11/09 15:22:50;;;;;;;;;;;;;;;;;;5091214;28;644;-73
2022/11/09 15:25:36;;;;;;;;;;;;;;;;;;5091789;28;610;-74
2022/11/09 15:28:22;;;;;;;;;;;;;;;;;;5091579;28;1325;-73
2022/11/09 15:31:14;;;;;;;;;;;;;;;;;;5092240;28;632;-74
2022/11/09 15:33:59;;;;;;;;;;;;;;;;;;5053036;28;596;-74
2022/11/09 15:36:44;;;;;;;;;;;;;;;;;;5053212;28;621;-74
2022/11/09 15:39:30;;;;;;;;;;;;;;;;;;5052534;28;1910;-74
2022/11/09 15:42:15;;;;;;;;;;;;;;;;;;5052229;28;716;-73
2022/11/09 15:45:00;;;;;;;;;;;;;;;;;;5086439;28;1369;-74
2022/11/09 15:47:49;;;;;;;;;;;;;;;;;;5093337;28;635;-75
2022/11/09 15:50:33;;;;;;;;;;;;;;;;;;5092908;28;689;-74
2022/11/09 15:53:18;;;;;;;;;;;;;;;;;;5090504;28;1455;-74
2022/11/09 15:56:05;;;;;;;;;;;;;;;;;;5071828;28;664;-73
2022/11/09 15:58:51;;;;;;;;;;;;;;;;;;5071978;28;1967;-74
2022/11/09 16:01:36;;;;;;;;;;;;;;;;;;5071799;28;655;-74
2022/11/09 16:04:21;;;;;;;;;;;;;;;;;;5072322;28;1421;-75
2022/11/09 16:07:05;;;;;;;;;;;;;;;;;;5072104;28;609;-74
2022/11/09 16:09:50;;;;;;;;;;;;;;;;;;5072031;28;1365;-74
2022/11/09 16:12:38;;;;;;;;;;;;;;;;;;5071712;28;658;-75
2022/11/09 16:15:23;;;;;;;;;;;;;;;;;;5071462;28;640;-73
2022/11/09 16:18:09;;;;;;;;;;;;;;;;;;5076618;28;1968;-73
2022/11/09 16:20:54;;;;;;;;;;;;;;;;;;5092418;28;626;-74
2022/11/09 16:23:39;;;;;;;;;;;;;;;;;;5091480;28;625;-74
2022/11/09 16:26:24;;;;;;;;;;;;;;;;;;5092182;28;626;-74
2022/11/09 16:29:10;;;;;;;;;;;;;;;;;;5092439;28;1428;-76
2022/11/09 16:31:55;;;;;;;;;;;;;;;;;;5093071;28;1218;-75
2022/11/09 16:34:39;;;;;;;;;;;;;;;;;;5094760;28;614;-74
2022/11/09 16:37:24;;;;;;;;;;;;;;;;;;5092565;28;644;-74
2022/11/09 16:40:10;;;;;;;;;;;;;;;;;;5090694;28;1475;-74
2022/11/09 16:42:55;;;;;;;;;;;;;;;;;;5091968;28;644;-74
2022/11/09 16:45:44;;;;;;;;;;;;;;;;;;5054063;28;1342;-74
2022/11/09 16:48:29;;;;;;;;;;;;;;;;;;5051511;28;1424;-73
2022/11/09 16:51:14;;;;;;;;;;;;;;;;;;5068302;28;1464;-75
2022/11/09 16:53:59;;;;;;;;;;;;;;;;;;5071626;28;634;-73
2022/11/09 16:56:46;;;;;;;;;;;;;;;;;;5071769;28;586;-74
2022/11/09 16:59:31;;;;;;;;;;;;;;;;;;5073236;28;1973;-74
2022/11/09 17:02:17;;;;;;;;;;;;;;;;;;5081787;28;620;-73
2022/11/09 17:05:02;;;;;;;;;;;;;;;;;;5068857;28;1483;-74
2022/11/09 17:07:47;;;;;;;;;;;;;;;;;;4979178;28;625;-75
2022/11/09 17:10:32;;;;;;;;;;;;;;;;;;5006660;28;1309;-75
2022/11/09 17:13:18;;;;;;;;;;;;;;;;;;5022513;28;651;-75
2022/11/09 17:16:04;;;;;;;;;;;;;;;;;;5023467;28;588;-75
2022/11/09 17:18:50;;;;;;;;;;;;;;;;;;5021827;28;2005;-75
2022/11/09 17:21:35;;;;;;;;;;;;;;;;;;5023774;28;619;-74
2022/11/09 17:24:20;;;;;;;;;;;;;;;;;;4999100;28;604;-75
2022/11/09 17:27:08;;;;;;;;;;;;;;;;;;5003237;28;633;-74
2022/11/09 17:29:53;;;;;;;;;;;;;;;;;;5004090;28;1341;-74
2022/11/09 17:32:39;;;;;;;;;;;;;;;;;;5003402;28;653;-74
2022/11/09 17:35:26;;;;;;;;;;;;;;;;;;5003478;28;592;-73
2022/11/09 17:38:12;;;;;;;;;;;;;;;;;;5000014;28;1930;-74
2022/11/09 17:41:01;;;;;;;;;;;;;;;;;;4990939;28;597;-76
2022/11/09 17:43:46;;;;;;;;;;;;;;;;;;5000316;28;664;-74
2022/11/09 17:46:31;;;;;;;;;;;;;;;;;;5004068;28;629;-74
2022/11/09 17:49:16;;;;;;;;;;;;;;;;;;5006733;28;1369;-74
2022/11/09 17:52:02;;;;;;;;;;;;;;;;;;5006825;28;617;-72
2022/11/09 17:54:47;;;;;;;;;;;;;;;;;;5002672;28;603;-72
2022/11/09 17:57:33;;;;;;;;;;;;;;;;;;4996527;28;664;-75
2022/11/09 18:00:18;;;;;;;;;;;;;;;;;;5002875;28;1930;-74